Time;durP1;ratioP1;P1;durP2;ratioP2;P2;SDS_P1;SDS_P2;PMS_P1;PMS_P2;Temp;Humidity;BMP_temperature;BMP_pressure;BME280_temperature;BME280_humidity;BME280_pressure;Samples;Min_cycle;Max_cycle;Signal;HPM_P1;HPM_P2
2023/10/05 00:01:20;;;;;;;7.00;3.50;;;;;;;11.30;66.30;100034.40;106976;1260;73859;-39
2023/10/05 00:03:50;;;;;;;7.80;4.10;;;;;;;11.36;66.25;100036.82;107003;1260;68004;-39
2023/10/05 00:06:25;;;;;;;7.00;3.90;;;;;;;11.36;66.44;100043.17;107007;1261;72693;-39
2023/10/05 00:08:54;;;;;;;6.60;3.80;;;;;;;11.33;66.47;100040.63;106939;1262;60531;-40
2023/10/05 00:11:29;;;;;;;7.10;4.00;;;;;;;11.31;66.44;100040.71;106983;1260;60342;-40
2023/10/05 00:14:00;;;;;;;10.30;4.30;;;;;;;11.30;66.56;100040.91;106969;1260;73856;-39
2023/10/05 00:16:37;;;;;;;8.30;4.10;;;;;;;11.28;66.40;100044.21;106913;1260;67599;-39
2023/10/05 00:19:10;;;;;;;8.20;3.70;;;;;;;11.25;66.46;100045.95;106911;1261;72710;-39
2023/10/05 00:21:46;;;;;;;7.90;3.80;;;;;;;11.25;66.38;100046.66;106962;1261;60524;-39
2023/10/05 00:24:15;;;;;;;8.10;3.80;;;;;;;11.27;66.42;100048.76;106963;1261;60304;-39
2023/10/05 00:26:44;;;;;;;5.60;4.00;;;;;;;11.26;66.72;100045.91;106994;1265;73885;-40
2023/10/05 00:31:47;;;;;;;8.20;4.80;;;;;;;11.21;66.62;100045.02;106953;1260;71683;-39
2023/10/05 00:36:50;;;;;;;9.90;4.60;;;;;;;11.15;66.95;100040.19;106985;1260;60536;-39
2023/10/05 00:39:21;;;;;;;6.50;3.90;;;;;;;11.13;67.29;100042.93;107052;1260;73928;-39
2023/10/05 00:42:08;;;;;;;8.40;4.20;;;;;;;11.15;67.31;100046.88;107036;1260;68257;-39
2023/10/05 00:44:39;;;;;;;6.60;3.80;;;;;;;11.18;67.37;100045.54;106994;1260;72666;-39
2023/10/05 00:47:06;;;;;;;10.00;4.20;;;;;;;11.16;67.43;100050.14;106879;1259;59830;-40
2023/10/05 00:49:58;;;;;;;10.50;4.50;;;;;;;11.12;67.57;100051.11;106988;1260;60468;-39
2023/10/05 00:52:29;;;;;;;9.40;4.30;;;;;;;11.07;67.55;100049.12;107042;1259;72576;-39
2023/10/05 00:54:59;;;;;;;6.70;4.60;;;;;;;11.03;67.70;100048.48;106887;1260;67580;-40
2023/10/05 00:57:28;;;;;;;9.70;4.50;;;;;;;10.99;67.77;100051.46;107063;1260;71460;-39
2023/10/05 01:02:35;;;;;;;7.00;4.00;;;;;;;10.99;67.72;100048.05;107017;1260;60534;-39
2023/10/05 01:05:14;;;;;;;8.00;4.50;;;;;;;10.93;67.85;100054.77;107020;1259;73911;-39
2023/10/05 01:12:39;;;;;;;9.20;4.60;;;;;;;10.74;68.38;100058.42;106989;1260;60367;-39
2023/10/05 01:15:09;;;;;;;8.60;4.30;;;;;;;10.72;68.36;100066.98;107006;1259;60015;-39
2023/10/05 01:17:37;;;;;;;8.90;4.60;;;;;;;10.72;68.50;100066.19;107020;1260;72554;-39
2023/10/05 01:20:22;;;;;;;8.10;4.70;;;;;;;10.67;68.69;100066.42;107068;1260;66511;-39
2023/10/05 01:22:49;;;;;;;9.30;4.70;;;;;;;10.60;68.93;100060.92;107020;1259;72695;-40
2023/10/05 01:25:18;;;;;;;9.50;5.00;;;;;;;10.54;69.19;100063.63;107084;1262;60101;-39
2023/10/05 01:27:48;;;;;;;10.90;4.90;;;;;;;10.50;69.36;100066.46;107016;1260;60395;-39
2023/10/05 01:30:16;;;;;;;11.60;4.80;;;;;;;10.49;69.56;100067.27;107062;1259;72547;-39
2023/10/05 01:32:44;;;;;;;10.80;5.10;;;;;;;10.49;69.54;100071.39;107009;1259;183333;-39
2023/10/05 01:36:42;;;;;;;7.90;4.70;;;;;;;10.43;69.74;100069.88;104118;1291;601186;-39
2023/10/05 01:39:12;;;;;;;9.70;5.30;;;;;;;10.37;69.94;100076.96;106542;1270;60074;-39
2023/10/05 01:41:40;;;;;;;12.70;5.30;;;;;;;10.33;70.04;100079.71;106643;1267;60067;-39
2023/10/05 01:44:08;;;;;;;13.30;4.70;;;;;;;10.34;70.08;100083.08;106548;1267;71120;-39
2023/10/05 01:46:36;;;;;;;11.30;4.70;;;;;;;10.35;70.16;100079.24;106671;1266;67564;-39
2023/10/05 01:49:04;;;;;;;11.20;5.50;;;;;;;10.31;70.37;100078.88;106622;1267;72678;-39
2023/10/05 01:51:33;;;;;;;8.70;5.50;;;;;;;10.25;70.47;100073.35;106585;1264;205111;-39
2023/10/05 01:54:11;;;;;;;10.00;5.50;;;;;;;10.21;70.66;100075.83;106867;1264;59218;-39
2023/10/05 01:56:43;;;;;;;11.20;5.50;;;;;;;10.15;70.92;100076.42;106787;1263;72297;-39
2023/10/05 01:59:13;;;;;;;9.10;4.90;;;;;;;10.15;70.89;100080.83;106752;1263;67743;-39
2023/10/05 02:01:40;;;;;;;12.80;5.40;;;;;;;10.16;71.04;100082.65;106641;1267;73053;-39
2023/10/05 02:04:10;;;;;;;9.30;5.10;;;;;;;10.12;71.28;100087.23;106716;1264;59567;-39
2023/10/05 02:06:40;;;;;;;10.60;6.00;;;;;;;10.04;71.53;100089.77;106731;1264;59272;-39
2023/10/05 02:09:13;;;;;;;11.20;5.60;;;;;;;9.99;71.85;100095.02;106613;1264;73047;-39
2023/10/05 02:11:42;;;;;;;9.50;5.70;;;;;;;9.93;72.05;100093.44;106818;1263;67634;-39
2023/10/05 02:14:12;;;;;;;13.30;5.40;;;;;;;9.94;72.07;100096.55;106848;1266;71377;-39
2023/10/05 02:16:41;;;;;;;14.30;5.60;;;;;;;9.96;72.18;100099.80;106698;1264;61720;-39
2023/10/05 02:19:09;;;;;;;10.30;5.50;;;;;;;9.95;72.34;100098.85;106788;1264;60476;-39
2023/10/05 02:21:37;;;;;;;9.40;5.80;;;;;;;9.92;72.63;100097.57;106789;1268;73056;-39
2023/10/05 02:26:45;;;;;;;11.80;5.20;;;;;;;9.86;72.79;100098.23;106794;1263;72674;-39
2023/10/05 02:29:15;;;;;;;11.40;5.50;;;;;;;9.86;72.91;100094.68;106829;1264;61703;-39
2023/10/05 02:32:21;;;;;;;8.50;4.90;;;;;;;9.87;72.84;100090.69;106820;1263;59669;-38
2023/10/05 02:34:59;;;;;;;11.70;5.10;;;;;;;9.84;72.71;100087.79;106741;1264;73069;-39
2023/10/05 02:37:32;;;;;;;10.20;6.00;;;;;;;9.79;72.89;100085.96;106802;1264;67872;-39
2023/10/05 02:40:00;;;;;;;11.30;6.20;;;;;;;9.71;73.12;100088.29;106825;1263;72720;-39
2023/10/05 02:42:32;;;;;;;11.90;5.50;;;;;;;9.65;73.42;100087.63;106799;1268;60357;-39
2023/10/05 02:45:03;;;;;;;11.60;5.80;;;;;;;9.65;73.48;100081.80;106824;1263;59717;-39
2023/10/05 02:47:31;;;;;;;12.50;5.40;;;;;;;9.67;73.37;100077.77;106754;1263;73079;-39
2023/10/05 02:50:00;;;;;;;12.10;5.30;;;;;;;9.67;73.51;100077.33;106816;1263;66859;-39
2023/10/05 02:52:32;;;;;;;10.70;5.50;;;;;;;9.64;73.75;100076.73;106797;1263;71461;-39
2023/10/05 02:55:00;;;;;;;10.80;5.80;;;;;;;9.61;73.83;100082.45;106775;1263;60107;-39
2023/10/05 02:57:28;;;;;;;12.10;6.00;;;;;;;9.57;73.85;100081.70;106766;1263;59576;-39
2023/10/05 02:59:55;;;;;;;12.70;5.90;;;;;;;9.57;73.98;100082.08;106721;1264;71884;-39
2023/10/05 03:02:23;;;;;;;12.40;5.70;;;;;;;9.58;73.97;100083.19;106754;1264;68064;-39
2023/10/05 03:05:03;;;;;;;9.20;5.70;;;;;;;9.58;74.03;100085.73;106757;1266;71407;-39
2023/10/05 03:07:30;;;;;;;10.70;5.30;;;;;;;9.52;74.17;100086.01;106694;1264;59749;-39
2023/10/05 03:09:59;;;;;;;11.90;5.90;;;;;;;9.48;74.28;100088.09;106780;1264;59519;-39
2023/10/05 03:12:32;;;;;;;9.60;5.50;;;;;;;9.40;74.36;100088.99;106656;1264;71979;-39
2023/10/05 03:15:06;;;;;;;15.10;5.30;;;;;;;9.39;74.26;100091.04;106619;1264;66311;-39
2023/10/05 03:17:37;;;;;;;12.40;5.50;;;;;;;9.41;74.15;100092.78;106589;1264;71436;-39
2023/10/05 03:20:15;;;;;;;11.00;5.60;;;;;;;9.36;74.18;100096.04;106700;1264;59656;-39
2023/10/05 03:22:46;;;;;;;15.20;6.20;;;;;;;9.28;74.35;100100.29;106653;1264;60718;-39
2023/10/05 03:25:16;;;;;;;12.90;5.70;;;;;;;9.21;74.67;100099.04;106686;1264;71758;-39
2023/10/05 03:27:46;;;;;;;;;;;;;;;9.16;74.78;100099.34;106683;1263;68623;-39
2023/10/05 03:30:15;;;;;;;15.50;5.70;;;;;;;9.14;74.74;100094.23;106733;1264;72762;-39
2023/10/05 03:32:48;;;;;;;10.30;5.10;;;;;;;9.14;74.88;100098.09;106630;1266;61712;-39
2023/10/05 03:35:22;;;;;;;9.80;5.70;;;;;;;9.12;75.03;100101.00;106734;1264;59816;-39
2023/10/05 03:37:50;;;;;;;9.20;5.80;;;;;;;9.09;75.17;100096.61;106764;1264;73119;-39
2023/10/05 03:40:25;;;;;;;14.70;6.20;;;;;;;9.04;75.36;100097.66;107055;1257;67756;-39
2023/10/05 03:42:59;;;;;;;13.90;5.80;;;;;;;8.99;75.44;100101.75;107110;1260;71367;-39
2023/10/05 03:45:39;;;;;;;12.30;5.20;;;;;;;9.00;75.50;100099.67;107117;1257;60472;-39
2023/10/05 03:48:07;;;;;;;8.60;5.60;;;;;;;9.03;75.46;100097.61;107125;1257;60084;-39
2023/10/05 03:50:37;;;;;;;10.50;5.40;;;;;;;9.03;75.62;100094.55;107171;1257;71853;-39
2023/10/05 03:53:08;;;;;;;12.10;6.00;;;;;;;8.99;75.69;100092.45;107157;1257;66288;-39
2023/10/05 03:55:36;;;;;;;12.70;6.40;;;;;;;8.93;75.77;100100.20;107221;1258;72472;-39
2023/10/05 03:58:07;;;;;;;13.70;6.60;;;;;;;8.89;75.87;100097.02;107131;1258;60489;-39
2023/10/05 04:00:35;;;;;;;9.30;5.90;;;;;;;8.87;75.88;100100.49;107028;1257;59270;-39
2023/10/05 04:03:06;;;;;;;11.90;6.20;;;;;;;8.86;75.97;100101.78;107070;1264;72110;-39
2023/10/05 04:05:40;;;;;;;10.90;5.90;;;;;;;8.86;75.89;100102.57;107173;1257;66418;-39
2023/10/05 04:08:11;;;;;;;14.20;6.70;;;;;;;8.86;75.95;100110.12;107191;1259;71478;-39
2023/10/05 04:10:46;;;;;;;12.40;6.40;;;;;;;8.82;76.07;100112.65;107232;1257;59496;-39
2023/10/05 04:13:17;;;;;;;12.00;6.30;;;;;;;8.77;76.32;100105.83;107132;1257;59526;-39
2023/10/05 04:15:45;;;;;;;11.50;5.90;;;;;;;8.71;76.55;100104.63;107227;1257;73142;-39
2023/10/05 04:18:16;;;;;;;11.70;5.70;;;;;;;8.71;76.60;100105.55;107126;1257;67951;-39
2023/10/05 04:20:44;;;;;;;12.70;6.00;;;;;;;8.66;76.64;100101.88;107118;1260;73621;-39
2023/10/05 04:23:25;;;;;;;9.60;5.20;;;;;;;8.73;76.63;100119.20;107109;1261;60402;-39
2023/10/05 04:25:57;;;;;;;9.20;5.10;;;;;;;8.78;76.89;100120.86;107181;1258;59621;-39
2023/10/05 04:28:34;;;;;;;7.70;5.70;;;;;;;8.80;77.10;100119.70;107226;1257;72250;-39
2023/10/05 04:31:10;;;;;;;13.70;5.90;;;;;;;8.82;77.43;100113.92;107211;1257;67576;-39
2023/10/05 04:33:39;;;;;;;10.40;5.80;;;;;;;8.85;77.38;100110.79;107118;1259;72693;-39
2023/10/05 04:36:07;;;;;;;9.90;5.00;;;;;;;8.90;77.18;100111.29;107136;1257;61704;-39
2023/10/05 04:38:35;;;;;;;10.60;4.90;;;;;;;8.98;76.91;100110.89;107126;1257;60065;-39
2023/10/05 04:41:04;;;;;;;9.20;5.00;;;;;;;9.00;76.87;100112.92;107170;1260;73097;-39
2023/10/05 04:43:32;;;;;;;10.00;5.40;;;;;;;8.99;76.92;100120.05;107135;1260;67658;-39
2023/10/05 04:46:05;;;;;;;13.40;5.70;;;;;;;8.98;77.02;100122.08;107116;1260;72677;-39
2023/10/05 04:48:33;;;;;;;11.00;5.00;;;;;;;8.98;77.18;100126.27;107113;1257;61681;-39
2023/10/05 04:51:01;;;;;;;9.60;5.00;;;;;;;8.99;77.15;100118.29;107170;1257;60494;-39
2023/10/05 04:53:30;;;;;;;11.20;5.00;;;;;;;9.11;77.14;100126.30;107102;1257;71987;-39
2023/10/05 04:56:14;;;;;;;10.20;5.30;;;;;;;9.13;77.15;100126.29;107165;1257;67910;-39
2023/10/05 05:01:36;;;;;;;14.70;5.10;;;;;;;9.18;77.38;100131.70;107104;1258;63842;-39
2023/10/05 05:04:27;;;;;;;9.80;5.30;;;;;;;9.26;77.21;100128.20;107155;1257;59768;-39
2023/10/05 05:06:55;;;;;;;9.50;5.40;;;;;;;9.36;76.92;100125.23;107072;1257;71711;-39
2023/10/05 05:09:29;;;;;;;10.10;5.40;;;;;;;9.40;77.07;100125.32;107086;1263;68341;-39
2023/10/05 05:12:08;;;;;;;10.10;5.80;;;;;;;9.42;77.16;100127.86;107156;1263;72597;-39
2023/10/05 05:14:46;;;;;;;9.30;5.50;;;;;;;9.46;77.05;100134.36;107109;1259;60462;-39
2023/10/05 05:17:15;;;;;;;10.30;5.80;;;;;;;9.56;76.86;100134.79;107111;1257;60351;-39
2023/10/05 05:19:44;;;;;;;13.90;5.30;;;;;;;9.64;76.62;100134.77;107241;1257;73145;-39
2023/10/05 05:22:12;;;;;;;12.50;5.10;;;;;;;9.67;76.61;100131.00;107114;1257;70291;-39
2023/10/05 05:24:41;;;;;;;17.90;6.10;;;;;;;9.70;76.72;100132.92;107082;1257;71513;-39
2023/10/05 05:29:39;;;;;;;9.80;5.50;;;;;;;9.76;76.92;100136.94;107088;1257;59445;-39
2023/10/05 05:32:13;;;;;;;8.80;4.80;;;;;;;9.83;76.84;100135.25;107089;1257;75220;-39
2023/10/05 05:34:41;;;;;;;11.70;5.40;;;;;;;9.89;76.73;100139.26;107088;1257;68328;-39
2023/10/05 05:37:28;;;;;;;10.10;5.30;;;;;;;9.95;76.66;100144.33;107091;1260;70954;-39
2023/10/05 05:40:03;;;;;;;9.00;5.00;;;;;;;10.02;76.61;100147.20;107098;1257;61826;-39
2023/10/05 05:42:32;;;;;;;10.30;4.60;;;;;;;10.11;76.61;100145.31;107222;1257;60142;-39
2023/10/05 05:45:06;;;;;;;13.50;5.10;;;;;;;10.20;76.50;100147.05;107070;1257;72562;-39
2023/10/05 05:47:35;;;;;;;10.30;4.90;;;;;;;10.24;76.45;100147.65;107122;1257;67055;-39
2023/10/05 05:50:03;;;;;;;11.50;5.20;;;;;;;10.28;76.51;100150.79;107077;1260;72811;-39
2023/10/05 05:52:32;;;;;;;9.20;5.10;;;;;;;10.34;76.47;100155.08;107106;1259;62134;-39
2023/10/05 05:55:09;;;;;;;8.20;4.70;;;;;;;10.44;76.37;100157.66;107153;1257;60441;-39
2023/10/05 05:57:37;;;;;;;13.70;5.40;;;;;;;10.56;76.15;100158.68;107079;1257;75990;-39
2023/10/05 06:00:12;;;;;;;8.70;5.00;;;;;;;10.62;75.62;100164.05;107076;1257;66821;-39
2023/10/05 06:02:40;;;;;;;14.50;5.70;;;;;;;10.65;75.64;100163.82;107206;1257;72550;-39
2023/10/05 06:05:09;;;;;;;12.30;5.70;;;;;;;10.68;75.62;100164.45;107055;1260;61793;-39
2023/10/05 06:07:40;;;;;;;10.40;4.70;;;;;;;10.77;75.43;100168.70;107119;1257;62219;-39
2023/10/05 06:10:12;;;;;;;11.50;5.20;;;;;;;10.84;75.11;100174.58;107112;1257;73995;-39
2023/10/05 06:12:44;;;;;;;10.40;5.50;;;;;;;10.86;74.96;100172.25;107219;1257;67210;-39
2023/10/05 06:15:15;;;;;;;11.90;5.50;;;;;;;10.90;74.87;100170.80;107110;1257;73053;-39
2023/10/05 06:17:46;;;;;;;9.70;5.50;;;;;;;10.98;74.58;100172.58;107226;1257;61819;-39
2023/10/05 06:20:14;;;;;;;9.00;5.00;;;;;;;11.07;74.36;100169.23;107227;1257;60223;-39
2023/10/05 06:22:44;;;;;;;10.20;5.10;;;;;;;11.13;74.25;100165.98;107128;1257;76054;-39
2023/10/05 06:25:15;;;;;;;11.30;5.60;;;;;;;11.16;74.14;100164.67;107242;1257;70099;-39
2023/10/05 06:27:44;;;;;;;10.60;5.60;;;;;;;11.20;74.23;100168.82;107102;1260;73544;-39
2023/10/05 06:30:12;;;;;;;9.70;5.50;;;;;;;11.26;73.98;100167.98;107162;1257;63774;-39
2023/10/05 06:32:40;;;;;;;12.90;5.70;;;;;;;11.36;74.00;100172.71;107112;1257;62269;-39
2023/10/05 06:35:08;;;;;;;10.10;5.50;;;;;;;11.45;73.46;100171.11;107187;1257;73367;-39
2023/10/05 06:37:39;;;;;;;11.20;5.20;;;;;;;11.58;73.20;100169.83;107033;1257;67805;-39
2023/10/05 06:40:14;;;;;;;10.60;5.20;;;;;;;11.69;73.07;100174.02;107080;1257;72783;-39
2023/10/05 06:42:43;;;;;;;12.80;5.40;;;;;;;11.79;72.94;100171.67;107060;1257;60510;-39
2023/10/05 06:45:15;;;;;;;11.50;5.80;;;;;;;11.86;72.87;100171.63;107108;1257;60562;-39
2023/10/05 06:47:43;;;;;;;11.20;5.20;;;;;;;11.95;72.59;100179.23;107228;1257;76010;-39
2023/10/05 06:50:12;;;;;;;8.50;4.90;;;;;;;12.05;72.21;100180.13;107078;1257;66254;-39
2023/10/05 06:52:43;;;;;;;12.30;6.00;;;;;;;12.17;71.57;100176.48;107044;1257;73217;-39
2023/10/05 06:55:14;;;;;;;14.10;5.00;;;;;;;12.25;71.32;100176.52;107109;1258;59241;-39
2023/10/05 06:57:45;;;;;;;12.80;5.10;;;;;;;12.30;71.11;100172.36;107082;1257;60463;-39
2023/10/05 07:00:20;;;;;;;11.60;5.40;;;;;;;12.35;71.17;100174.43;107088;1257;73962;-40
2023/10/05 07:02:48;;;;;;;10.00;5.50;;;;;;;12.41;70.85;100174.13;107214;1257;67792;-39
2023/10/05 07:05:16;;;;;;;9.00;5.00;;;;;;;12.49;70.34;100171.38;107217;1257;73471;-39
2023/10/05 07:07:44;;;;;;;13.50;4.90;;;;;;;12.60;70.41;100171.01;107215;1257;60450;-39
2023/10/05 07:10:16;;;;;;;12.20;5.00;;;;;;;12.69;70.13;100166.00;107278;1257;60456;-39
2023/10/05 07:12:48;;;;;;;11.20;5.30;;;;;;;12.75;69.70;100164.34;107277;1257;73971;-39
2023/10/05 07:15:19;;;;;;;7.50;4.80;;;;;;;12.80;69.43;100168.66;107236;1257;67809;-40
2023/10/05 07:17:48;;;;;;;13.20;5.20;;;;;;;12.85;69.41;100172.58;107255;1257;73081;-39
2023/10/05 07:20:17;;;;;;;17.20;5.70;;;;;;;12.95;68.78;100170.33;107237;1257;61868;-39
2023/10/05 07:22:46;;;;;;;16.30;5.80;;;;;;;13.04;68.71;100165.70;107274;1257;60959;-39
2023/10/05 07:25:21;;;;;;;9.40;5.20;;;;;;;13.09;68.37;100165.04;107237;1257;76029;-39
2023/10/05 07:27:48;;;;;;;11.30;5.30;;;;;;;13.14;68.49;100165.70;107287;1257;66766;-39
2023/10/05 07:30:17;;;;;;;10.70;5.90;;;;;;;13.19;68.31;100159.98;107293;1257;72887;-39
2023/10/05 07:32:44;;;;;;;14.40;6.20;;;;;;;13.26;67.92;100154.93;107242;1257;60412;-39
2023/10/05 07:35:21;;;;;;;13.00;6.50;;;;;;;13.39;67.88;100155.96;107240;1257;60336;-40
2023/10/05 07:37:49;;;;;;;11.90;6.00;;;;;;;13.52;67.52;100154.60;107226;1257;72831;-39
2023/10/05 07:40:17;;;;;;;11.90;5.60;;;;;;;13.63;66.95;100156.83;107251;1257;66565;-40
2023/10/05 07:42:45;;;;;;;15.60;6.30;;;;;;;13.69;66.42;100154.45;107257;1257;71499;-39
2023/10/05 07:45:13;;;;;;;14.30;5.90;;;;;;;13.73;66.44;100153.83;107257;1257;60530;-40
2023/10/05 07:47:42;;;;;;;14.20;5.70;;;;;;;13.79;66.20;100158.23;107275;1257;60945;-39
2023/10/05 07:50:10;;;;;;;13.00;5.30;;;;;;;13.83;65.76;100151.68;107282;1261;72633;-39
2023/10/05 07:52:44;;;;;;;10.70;5.50;;;;;;;13.92;65.74;100151.85;107239;1257;68583;-40
2023/10/05 07:55:11;;;;;;;12.20;5.30;;;;;;;13.99;65.38;100149.40;107233;1257;72817;-39
2023/10/05 07:57:39;;;;;;;11.50;5.50;;;;;;;14.04;65.28;100144.89;107291;1257;62178;-40
2023/10/05 08:00:11;;;;;;;11.30;5.50;;;;;;;14.07;64.95;100147.52;107263;1257;60392;-40
2023/10/05 08:02:40;;;;;;;13.70;5.00;;;;;;;14.10;65.06;100145.45;107254;1257;75067;-39
2023/10/05 08:05:11;;;;;;;10.70;6.00;;;;;;;14.15;64.96;100146.73;107246;1257;68117;-39
2023/10/05 08:07:40;;;;;;;12.60;5.80;;;;;;;14.22;64.68;100149.86;107216;1257;71535;-40
2023/10/05 08:10:21;;;;;;;15.60;5.40;;;;;;;14.27;64.53;100148.64;107211;1257;63776;-39
2023/10/05 08:12:49;;;;;;;11.00;5.00;;;;;;;14.34;64.37;100141.43;107253;1257;60363;-39
2023/10/05 08:15:19;;;;;;;10.70;5.10;;;;;;;14.46;64.00;100140.54;107224;1258;76063;-39
2023/10/05 08:17:48;;;;;;;9.40;4.80;;;;;;;14.51;63.61;100131.73;107256;1257;69742;-39
2023/10/05 08:20:17;;;;;;;7.40;4.40;;;;;;;14.61;63.23;100137.66;107230;1257;73036;-39
2023/10/05 08:22:49;;;;;;;11.00;4.40;;;;;;;14.67;63.37;100133.45;107054;1257;59368;-40
2023/10/05 08:25:17;;;;;;;9.50;4.90;;;;;;;14.74;62.54;100134.25;107075;1257;59299;-40
2023/10/05 08:27:48;;;;;;;12.90;5.00;;;;;;;14.78;62.11;100135.27;107086;1263;72691;-40
2023/10/05 08:30:16;;;;;;;11.50;4.80;;;;;;;14.81;61.83;100133.51;107092;1257;68094;-40
2023/10/05 08:32:47;;;;;;;9.20;4.50;;;;;;;14.86;61.89;100129.52;107229;1261;72791;-40
2023/10/05 08:35:19;;;;;;;15.50;5.10;;;;;;;14.89;61.69;100127.52;107055;1257;60431;-40
2023/10/05 08:37:49;;;;;;;12.70;4.20;;;;;;;14.94;61.74;100128.61;107109;1257;61250;-40
2023/10/05 08:40:37;;;;;;;9.90;3.90;;;;;;;15.07;61.09;100128.86;107079;1257;74850;-40
2023/10/05 08:43:10;;;;;;;13.70;4.40;;;;;;;15.18;60.67;100125.34;107071;1257;66562;-40
2023/10/05 08:45:46;;;;;;;8.40;3.90;;;;;;;15.25;60.53;100116.84;107066;1257;71492;-40
2023/10/05 08:48:28;;;;;;;9.40;4.10;;;;;;;15.31;60.11;100118.15;107073;1258;62280;-40
2023/10/05 08:51:14;;;;;;;12.90;5.00;;;;;;;15.36;59.74;100113.38;107228;1257;60155;-40
2023/10/05 08:54:02;;;;;;;9.50;4.20;;;;;;;15.43;59.10;100110.72;107061;1258;72698;-40
2023/10/05 08:56:31;;;;;;;7.80;4.40;;;;;;;15.50;58.71;100109.40;107210;1263;68350;-40
2023/10/05 08:59:06;;;;;;;10.70;4.50;;;;;;;15.55;58.09;100107.21;107082;1257;70857;-40
2023/10/05 09:01:35;;;;;;;9.90;4.40;;;;;;;15.58;58.08;100104.91;107094;1257;60481;-40
2023/10/05 09:04:11;;;;;;;8.40;4.30;;;;;;;15.60;57.55;100104.30;107073;1257;62195;-40
2023/10/05 09:06:44;;;;;;;11.60;4.40;;;;;;;15.61;57.62;100098.45;107063;1257;73989;-40
2023/10/05 09:09:14;;;;;;;10.40;4.80;;;;;;;15.62;57.90;100094.02;107125;1257;66819;-40
2023/10/05 09:11:42;;;;;;;11.20;4.60;;;;;;;15.65;58.12;100094.83;107222;1257;74917;-40
2023/10/05 09:14:13;;;;;;;10.90;4.70;;;;;;;15.68;57.72;100094.55;107287;1257;59546;-40
2023/10/05 09:16:42;;;;;;;8.60;4.40;;;;;;;15.69;57.43;100100.64;107073;1257;60324;-40
2023/10/05 09:19:17;;;;;;;11.40;4.50;;;;;;;15.69;57.23;100097.82;107116;1257;74582;-40
2023/10/05 09:21:50;;;;;;;10.90;4.40;;;;;;;15.69;57.06;100096.97;107065;1257;67965;-40
2023/10/05 09:24:22;;;;;;;7.30;4.10;;;;;;;15.69;56.99;100089.93;107072;1260;74922;-40
2023/10/05 09:26:53;;;;;;;7.20;4.00;;;;;;;15.68;56.88;100086.50;107077;1257;60517;-40
2023/10/05 09:29:28;;;;;;;9.90;4.10;;;;;;;15.69;56.75;100088.60;107119;1259;62171;-40
2023/10/05 09:31:57;;;;;;;10.00;4.40;;;;;;;15.69;56.65;100086.58;107079;1258;71640;-40
2023/10/05 09:34:36;;;;;;;;;;;;;;;15.69;56.43;100086.50;107067;1257;71062;-40
2023/10/05 09:37:08;;;;;;;9.50;4.80;;;;;;;15.69;56.86;100088.84;107068;1260;71461;-40
2023/10/05 09:39:43;;;;;;;8.60;4.60;;;;;;;15.70;56.70;100089.71;107052;1260;60220;-40
2023/10/05 09:42:14;;;;;;;13.20;4.50;;;;;;;15.70;56.49;100091.67;107085;1257;61537;-40
2023/10/05 09:45:08;;;;;;;10.40;4.30;;;;;;;15.69;56.44;100089.16;107052;1257;72697;-40
2023/10/05 09:47:37;;;;;;;9.70;4.10;;;;;;;15.70;56.60;100088.38;107076;1257;70274;-40
2023/10/05 09:50:13;;;;;;;13.00;4.40;;;;;;;15.71;55.94;100095.04;107058;1260;71486;-40
2023/10/05 09:52:45;;;;;;;14.60;4.20;;;;;;;15.71;55.62;100086.76;107098;1257;60987;-40
2023/10/05 09:55:18;;;;;;;10.70;4.30;;;;;;;15.69;55.34;100081.11;107206;1257;60331;-40
2023/10/05 09:57:52;;;;;;;8.60;4.00;;;;;;;15.66;55.49;100077.80;107114;1258;74230;-40
2023/10/05 10:02:58;;;;;;;9.80;4.10;;;;;;;15.67;55.94;100083.45;107077;1263;72787;-40
2023/10/05 10:05:36;;;;;;;11.50;4.60;;;;;;;15.70;55.70;100084.96;107080;1263;62233;-40
2023/10/05 10:08:12;;;;;;;11.00;4.40;;;;;;;15.74;55.60;100080.45;107056;1258;60412;-40
2023/10/05 10:10:51;;;;;;;10.40;4.80;;;;;;;15.79;55.88;100075.52;107035;1257;72623;-40
2023/10/05 10:13:22;;;;;;;10.50;4.70;;;;;;;15.89;56.09;100074.89;107248;1257;66289;-40
2023/10/05 10:15:56;;;;;;;9.70;5.10;;;;;;;16.01;55.60;100071.09;107083;1257;71509;-40
2023/10/05 10:18:37;;;;;;;9.40;4.80;;;;;;;16.12;54.99;100065.55;107075;1260;60421;-40
2023/10/05 10:21:12;;;;;;;11.90;4.50;;;;;;;16.22;54.30;100059.21;107088;1257;60309;-40
2023/10/05 10:23:44;;;;;;;11.90;4.60;;;;;;;16.28;54.25;100056.14;107084;1257;75912;-40
2023/10/05 10:26:20;;;;;;;8.70;4.50;;;;;;;16.36;54.27;100055.48;107082;1257;68100;-40
2023/10/05 10:31:48;;;;;;;10.30;4.50;;;;;;;16.54;53.46;100052.48;107031;1257;59613;-40
2023/10/05 10:34:28;;;;;;;9.00;4.10;;;;;;;16.65;53.12;100049.27;107232;1257;59346;-40
2023/10/05 10:36:57;;;;;;;10.60;4.60;;;;;;;16.78;52.63;100044.80;107046;1257;75968;-40
2023/10/05 10:39:27;;;;;;;12.20;4.60;;;;;;;16.89;52.36;100034.61;107042;1257;70209;-40
2023/10/05 10:42:18;;;;;;;9.00;5.10;;;;;;;17.01;52.16;100035.73;107126;1263;74787;-40
2023/10/05 10:47:19;;;;;;;12.30;4.90;;;;;;;17.24;51.82;100023.76;107045;1262;60407;-39
2023/10/05 10:50:18;;;;;;;11.40;5.00;;;;;;;17.33;50.49;100020.17;107096;1258;72786;-40
2023/10/05 10:52:49;;;;;;;9.20;4.70;;;;;;;17.36;50.49;100019.71;107026;1257;68155;-40
2023/10/05 10:55:20;;;;;;;14.30;4.40;;;;;;;17.43;50.42;100022.00;107059;1260;73539;-40
2023/10/05 10:57:52;;;;;;;8.90;4.20;;;;;;;17.54;49.45;100014.73;107083;1257;60572;-41
2023/10/05 11:03:11;;;;;;;9.20;4.20;;;;;;;17.60;48.86;100018.99;107048;1257;73067;-40
2023/10/05 11:05:52;;;;;;;9.70;4.70;;;;;;;17.55;49.06;100020.14;107048;1257;67903;-40
2023/10/05 11:08:20;;;;;;;8.20;4.40;;;;;;;17.53;49.00;100016.14;107067;1263;72842;-40
2023/10/05 11:10:55;;;;;;;9.10;4.30;;;;;;;17.51;49.04;100010.89;107056;1261;61042;-39
2023/10/05 11:13:24;;;;;;;10.20;4.50;;;;;;;17.50;48.83;100011.83;107259;1263;60323;-39
2023/10/05 11:16:00;;;;;;;8.90;4.70;;;;;;;17.47;48.30;100011.13;107044;1263;72658;-39
2023/10/05 11:18:34;;;;;;;10.90;4.60;;;;;;;17.44;48.13;100008.77;107091;1257;67300;-39
2023/10/05 11:21:16;;;;;;;8.20;4.50;;;;;;;17.49;48.31;100003.21;107064;1263;72794;-40
2023/10/05 11:23:55;;;;;;;11.10;5.20;;;;;;;17.55;47.83;100001.49;107038;1258;60415;-40
2023/10/05 11:26:33;;;;;;;10.90;4.80;;;;;;;17.58;47.87;99997.66;107036;1262;61089;-39
2023/10/05 11:29:20;;;;;;;12.80;5.10;;;;;;;17.65;48.54;99998.94;107083;1258;76333;-40
2023/10/05 11:31:51;;;;;;;12.20;5.70;;;;;;;17.70;47.85;99996.84;107102;1257;66759;-39
2023/10/05 11:34:45;;;;;;;11.20;5.20;;;;;;;17.72;47.53;99991.81;107043;1257;71634;-40
2023/10/05 11:37:32;;;;;;;8.50;5.00;;;;;;;17.76;47.67;99987.51;107441;1254;60431;-39
2023/10/05 11:40:03;;;;;;;8.90;4.90;;;;;;;17.79;47.58;99981.39;107452;1253;62260;-40
2023/10/05 11:42:36;;;;;;;11.50;5.00;;;;;;;17.83;47.34;99977.63;107454;1260;75424;-40
2023/10/05 11:45:12;;;;;;;9.10;4.70;;;;;;;17.88;46.88;99971.11;107489;1259;68364;-40
2023/10/05 11:47:46;;;;;;;8.40;4.40;;;;;;;17.94;46.74;99973.62;107293;1260;71455;-40
2023/10/05 11:50:33;;;;;;;12.50;4.80;;;;;;;18.02;47.20;99966.48;107500;1259;60357;-40
2023/10/05 11:53:10;;;;;;;8.90;4.80;;;;;;;18.17;46.97;99965.98;107332;1255;60390;-40
2023/10/05 11:55:39;;;;;;;7.90;4.40;;;;;;;18.22;46.04;99959.92;107484;1259;74799;-40
2023/10/05 11:58:08;;;;;;;9.30;4.60;;;;;;;18.23;45.76;99957.02;107514;1259;68740;-40
2023/10/05 12:00:36;;;;;;;10.70;4.50;;;;;;;18.30;46.71;99956.54;107475;1259;72108;-40
2023/10/05 12:03:09;;;;;;;10.40;4.70;;;;;;;18.34;46.66;99951.42;107453;1255;59558;-40
2023/10/05 12:05:38;;;;;;;7.70;4.00;;;;;;;18.44;45.40;99949.98;107601;1255;59682;-40
2023/10/05 12:08:06;;;;;;;7.00;4.30;;;;;;;18.60;44.85;99942.17;107442;1254;72646;-40
2023/10/05 12:10:35;;;;;;;10.70;4.80;;;;;;;18.75;44.04;99938.34;107467;1254;66637;-40